sensor_id;sensor_type;location;lat;lon;timestamp;P1;durP1;ratioP1;P2;durP2;ratioP2
16228;SDS011;8222;51.462;12.630;2023-03-03T00:02:02;22.73;;;11.40;;
16228;SDS011;8222;51.462;12.630;2023-03-03T00:04:27;20.87;;;12.67;;
16228;SDS011;8222;51.462;12.630;2023-03-03T00:06:53;23.35;;;15.48;;
16228;SDS011;8222;51.462;12.630;2023-03-03T00:09:19;33.03;;;13.87;;
16228;SDS011;8222;51.462;12.630;2023-03-03T00:11:45;18.37;;;12.47;;
16228;SDS011;8222;51.462;12.630;2023-03-03T00:14:32;39.53;;;16.30;;
16228;SDS011;8222;51.462;12.630;2023-03-03T00:17:00;34.85;;;17.35;;
16228;SDS011;8222;51.462;12.630;2023-03-03T00:19:39;21.67;;;15.20;;
16228;SDS011;8222;51.462;12.630;2023-03-03T00:22:06;36.00;;;15.55;;
16228;SDS011;8222;51.462;12.630;2023-03-03T00:24:47;27.55;;;17.10;;
16228;SDS011;8222;51.462;12.630;2023-03-03T00:29:45;26.63;;;15.48;;
16228;SDS011;8222;51.462;12.630;2023-03-03T00:34:46;31.10;;;16.75;;
16228;SDS011;8222;51.462;12.630;2023-03-03T00:42:39;34.43;;;11.60;;
16228;SDS011;8222;51.462;12.630;2023-03-03T00:45:27;16.73;;;11.77;;
16228;SDS011;8222;51.462;12.630;2023-03-03T00:47:56;26.63;;;11.33;;
16228;SDS011;8222;51.462;12.630;2023-03-03T00:50:27;54.47;;;12.97;;
16228;SDS011;8222;51.462;12.630;2023-03-03T00:53:10;19.80;;;11.50;;
16228;SDS011;8222;51.462;12.630;2023-03-03T00:55:38;25.80;;;15.60;;
16228;SDS011;8222;51.462;12.630;2023-03-03T00:58:05;19.23;;;12.50;;
16228;SDS011;8222;51.462;12.630;2023-03-03T01:00:32;57.97;;;16.17;;
16228;SDS011;8222;51.462;12.630;2023-03-03T01:02:59;19.80;;;11.20;;
16228;SDS011;8222;51.462;12.630;2023-03-03T01:05:28;14.53;;;9.27;;
16228;SDS011;8222;51.462;12.630;2023-03-03T01:07:54;17.27;;;10.63;;
16228;SDS011;8222;51.462;12.630;2023-03-03T01:10:20;30.90;;;13.27;;
16228;SDS011;8222;51.462;12.630;2023-03-03T01:12:45;42.57;;;15.07;;
16228;SDS011;8222;51.462;12.630;2023-03-03T01:15:11;30.52;;;16.45;;
16228;SDS011;8222;51.462;12.630;2023-03-03T01:17:40;21.83;;;13.80;;
16228;SDS011;8222;51.462;12.630;2023-03-03T01:20:08;25.57;;;12.03;;
16228;SDS011;8222;51.462;12.630;2023-03-03T01:22:35;20.50;;;10.77;;
16228;SDS011;8222;51.462;12.630;2023-03-03T01:25:01;26.45;;;12.70;;
16228;SDS011;8222;51.462;12.630;2023-03-03T01:27:30;17.73;;;12.07;;
16228;SDS011;8222;51.462;12.630;2023-03-03T01:29:56;25.40;;;10.63;;
16228;SDS011;8222;51.462;12.630;2023-03-03T01:32:25;41.47;;;11.77;;
16228;SDS011;8222;51.462;12.630;2023-03-03T01:34:52;24.60;;;13.43;;
16228;SDS011;8222;51.462;12.630;2023-03-03T01:37:18;20.95;;;13.02;;
16228;SDS011;8222;51.462;12.630;2023-03-03T01:39:49;14.73;;;10.20;;
16228;SDS011;8222;51.462;12.630;2023-03-03T01:42:16;23.23;;;12.30;;
16228;SDS011;8222;51.462;12.630;2023-03-03T01:44:44;14.77;;;9.13;;
16228;SDS011;8222;51.462;12.630;2023-03-03T01:47:12;23.33;;;10.30;;
16228;SDS011;8222;51.462;12.630;2023-03-03T01:52:30;27.20;;;12.50;;
16228;SDS011;8222;51.462;12.630;2023-03-03T01:55:04;19.02;;;12.43;;
16228;SDS011;8222;51.462;12.630;2023-03-03T01:57:39;15.67;;;9.63;;
16228;SDS011;8222;51.462;12.630;2023-03-03T02:00:10;21.43;;;9.90;;
16228;SDS011;8222;51.462;12.630;2023-03-03T02:02:38;11.50;;;8.33;;
16228;SDS011;8222;51.462;12.630;2023-03-03T02:05:05;16.20;;;8.10;;
16228;SDS011;8222;51.462;12.630;2023-03-03T02:07:31;12.80;;;7.73;;
16228;SDS011;8222;51.462;12.630;2023-03-03T02:09:58;11.53;;;7.93;;
16228;SDS011;8222;51.462;12.630;2023-03-03T02:12:30;17.05;;;9.38;;
16228;SDS011;8222;51.462;12.630;2023-03-03T02:15:22;20.73;;;10.33;;
16228;SDS011;8222;51.462;12.630;2023-03-03T02:17:51;24.55;;;9.40;;
16228;SDS011;8222;51.462;12.630;2023-03-03T02:23:37;19.43;;;6.83;;
16228;SDS011;8222;51.462;12.630;2023-03-03T02:28:43;18.73;;;7.70;;
16228;SDS011;8222;51.462;12.630;2023-03-03T02:31:13;22.85;;;8.07;;
16228;SDS011;8222;51.462;12.630;2023-03-03T02:33:41;14.50;;;7.40;;
16228;SDS011;8222;51.462;12.630;2023-03-03T02:36:13;45.37;;;9.43;;
16228;SDS011;8222;51.462;12.630;2023-03-03T02:44:09;12.00;;;6.37;;
16228;SDS011;8222;51.462;12.630;2023-03-03T02:46:38;15.13;;;8.00;;
16228;SDS011;8222;51.462;12.630;2023-03-03T02:49:06;17.77;;;8.10;;
16228;SDS011;8222;51.462;12.630;2023-03-03T02:51:33;12.93;;;6.10;;
16228;SDS011;8222;51.462;12.630;2023-03-03T02:53:59;20.10;;;8.00;;
16228;SDS011;8222;51.462;12.630;2023-03-03T02:56:25;12.40;;;5.50;;
16228;SDS011;8222;51.462;12.630;2023-03-03T02:58:51;12.23;;;8.03;;
16228;SDS011;8222;51.462;12.630;2023-03-03T03:01:16;12.70;;;6.90;;
16228;SDS011;8222;51.462;12.630;2023-03-03T03:03:43;9.13;;;6.10;;
16228;SDS011;8222;51.462;12.630;2023-03-03T03:06:08;11.40;;;7.27;;
16228;SDS011;8222;51.462;12.630;2023-03-03T03:08:34;18.87;;;7.27;;
16228;SDS011;8222;51.462;12.630;2023-03-03T03:11:00;18.07;;;7.20;;
16228;SDS011;8222;51.462;12.630;2023-03-03T03:13:29;16.30;;;9.30;;
16228;SDS011;8222;51.462;12.630;2023-03-03T03:15:55;15.43;;;9.50;;
16228;SDS011;8222;51.462;12.630;2023-03-03T03:18:21;17.27;;;8.17;;
16228;SDS011;8222;51.462;12.630;2023-03-03T03:20:47;12.83;;;6.73;;
16228;SDS011;8222;51.462;12.630;2023-03-03T03:23:14;12.17;;;5.97;;
16228;SDS011;8222;51.462;12.630;2023-03-03T03:25:40;15.23;;;6.57;;
16228;SDS011;8222;51.462;12.630;2023-03-03T03:28:15;7.83;;;6.30;;
16228;SDS011;8222;51.462;12.630;2023-03-03T03:30:42;8.37;;;4.83;;
16228;SDS011;8222;51.462;12.630;2023-03-03T03:33:09;11.23;;;6.30;;
16228;SDS011;8222;51.462;12.630;2023-03-03T03:35:35;14.30;;;7.90;;
16228;SDS011;8222;51.462;12.630;2023-03-03T03:38:02;15.17;;;5.93;;
16228;SDS011;8222;51.462;12.630;2023-03-03T03:40:27;9.37;;;5.60;;
16228;SDS011;8222;51.462;12.630;2023-03-03T03:42:53;10.03;;;4.80;;
16228;SDS011;8222;51.462;12.630;2023-03-03T03:45:21;14.87;;;4.60;;
16228;SDS011;8222;51.462;12.630;2023-03-03T03:47:46;7.67;;;4.80;;
16228;SDS011;8222;51.462;12.630;2023-03-03T03:50:12;8.67;;;5.67;;
16228;SDS011;8222;51.462;12.630;2023-03-03T03:52:38;6.53;;;4.80;;
16228;SDS011;8222;51.462;12.630;2023-03-03T03:55:04;15.70;;;6.20;;
16228;SDS011;8222;51.462;12.630;2023-03-03T03:57:32;8.00;;;5.90;;
16228;SDS011;8222;51.462;12.630;2023-03-03T03:59:57;8.23;;;5.27;;
16228;SDS011;8222;51.462;12.630;2023-03-03T04:02:23;5.70;;;4.63;;
16228;SDS011;8222;51.462;12.630;2023-03-03T04:04:49;7.40;;;5.97;;
16228;SDS011;8222;51.462;12.630;2023-03-03T04:07:14;7.07;;;5.93;;
16228;SDS011;8222;51.462;12.630;2023-03-03T04:09:40;7.80;;;5.60;;
16228;SDS011;8222;51.462;12.630;2023-03-03T04:12:08;5.57;;;4.77;;
16228;SDS011;8222;51.462;12.630;2023-03-03T04:14:34;11.70;;;4.80;;
16228;SDS011;8222;51.462;12.630;2023-03-03T04:16:59;7.87;;;5.00;;
16228;SDS011;8222;51.462;12.630;2023-03-03T04:19:25;6.47;;;4.77;;
16228;SDS011;8222;51.462;12.630;2023-03-03T04:21:52;7.32;;;5.50;;
16228;SDS011;8222;51.462;12.630;2023-03-03T04:24:18;8.43;;;6.22;;
16228;SDS011;8222;51.462;12.630;2023-03-03T04:26:44;6.30;;;3.63;;
16228;SDS011;8222;51.462;12.630;2023-03-03T04:29:11;8.65;;;5.85;;
16228;SDS011;8222;51.462;12.630;2023-03-03T04:31:37;6.57;;;5.17;;
16228;SDS011;8222;51.462;12.630;2023-03-03T04:34:03;9.57;;;5.75;;
16228;SDS011;8222;51.462;12.630;2023-03-03T04:36:31;13.00;;;8.33;;
16228;SDS011;8222;51.462;12.630;2023-03-03T04:38:56;10.87;;;8.27;;
16228;SDS011;8222;51.462;12.630;2023-03-03T04:41:22;17.50;;;6.68;;
16228;SDS011;8222;51.462;12.630;2023-03-03T04:43:49;6.03;;;4.80;;
16228;SDS011;8222;51.462;12.630;2023-03-03T04:46:15;12.32;;;7.38;;
16228;SDS011;8222;51.462;12.630;2023-03-03T04:48:41;21.43;;;6.17;;
16228;SDS011;8222;51.462;12.630;2023-03-03T04:51:06;7.17;;;4.83;;
16228;SDS011;8222;51.462;12.630;2023-03-03T04:53:32;10.23;;;6.27;;
16228;SDS011;8222;51.462;12.630;2023-03-03T04:56:02;9.13;;;4.80;;
16228;SDS011;8222;51.462;12.630;2023-03-03T04:58:28;6.87;;;5.23;;
16228;SDS011;8222;51.462;12.630;2023-03-03T05:00:55;8.73;;;5.90;;
16228;SDS011;8222;51.462;12.630;2023-03-03T05:03:21;10.67;;;5.47;;
16228;SDS011;8222;51.462;12.630;2023-03-03T05:05:49;9.60;;;6.50;;
16228;SDS011;8222;51.462;12.630;2023-03-03T05:08:14;13.93;;;6.97;;
16228;SDS011;8222;51.462;12.630;2023-03-03T05:10:40;8.67;;;6.57;;
16228;SDS011;8222;51.462;12.630;2023-03-03T05:13:06;10.20;;;6.13;;
16228;SDS011;8222;51.462;12.630;2023-03-03T05:15:33;10.93;;;6.30;;
16228;SDS011;8222;51.462;12.630;2023-03-03T05:17:58;8.53;;;6.13;;
16228;SDS011;8222;51.462;12.630;2023-03-03T05:20:26;9.93;;;5.10;;
16228;SDS011;8222;51.462;12.630;2023-03-03T05:22:52;11.75;;;7.43;;
16228;SDS011;8222;51.462;12.630;2023-03-03T05:25:18;11.75;;;7.65;;
16228;SDS011;8222;51.462;12.630;2023-03-03T05:27:45;13.02;;;8.10;;
16228;SDS011;8222;51.462;12.630;2023-03-03T05:30:11;10.50;;;6.17;;
16228;SDS011;8222;51.462;12.630;2023-03-03T05:32:37;11.80;;;7.25;;
16228;SDS011;8222;51.462;12.630;2023-03-03T05:35:03;8.87;;;6.30;;
16228;SDS011;8222;51.462;12.630;2023-03-03T05:37:30;10.37;;;6.60;;
16228;SDS011;8222;51.462;12.630;2023-03-03T05:39:57;6.57;;;4.77;;
16228;SDS011;8222;51.462;12.630;2023-03-03T05:42:23;11.60;;;7.85;;
16228;SDS011;8222;51.462;12.630;2023-03-03T05:44:48;14.10;;;7.57;;
16228;SDS011;8222;51.462;12.630;2023-03-03T05:47:14;10.40;;;5.60;;
16228;SDS011;8222;51.462;12.630;2023-03-03T05:49:39;6.87;;;5.10;;
16228;SDS011;8222;51.462;12.630;2023-03-03T05:52:05;9.35;;;5.93;;
16228;SDS011;8222;51.462;12.630;2023-03-03T05:54:33;10.10;;;6.10;;
16228;SDS011;8222;51.462;12.630;2023-03-03T05:56:59;8.47;;;5.37;;
16228;SDS011;8222;51.462;12.630;2023-03-03T05:59:24;10.47;;;6.80;;
16228;SDS011;8222;51.462;12.630;2023-03-03T06:01:52;6.33;;;5.33;;
16228;SDS011;8222;51.462;12.630;2023-03-03T06:04:17;13.43;;;6.30;;
16228;SDS011;8222;51.462;12.630;2023-03-03T06:06:43;11.43;;;6.93;;
16228;SDS011;8222;51.462;12.630;2023-03-03T06:09:09;10.73;;;5.63;;
16228;SDS011;8222;51.462;12.630;2023-03-03T06:11:34;7.13;;;4.73;;
16228;SDS011;8222;51.462;12.630;2023-03-03T06:14:01;8.88;;;5.68;;
16228;SDS011;8222;51.462;12.630;2023-03-03T06:16:27;8.37;;;5.63;;
16228;SDS011;8222;51.462;12.630;2023-03-03T06:18:55;7.40;;;6.00;;
16228;SDS011;8222;51.462;12.630;2023-03-03T06:21:20;6.57;;;5.20;;
16228;SDS011;8222;51.462;12.630;2023-03-03T06:23:46;9.38;;;6.80;;
16228;SDS011;8222;51.462;12.630;2023-03-03T06:26:14;8.70;;;5.63;;
16228;SDS011;8222;51.462;12.630;2023-03-03T06:28:39;10.77;;;7.13;;
16228;SDS011;8222;51.462;12.630;2023-03-03T06:31:05;9.43;;;5.17;;
16228;SDS011;8222;51.462;12.630;2023-03-03T06:33:34;10.38;;;6.97;;
16228;SDS011;8222;51.462;12.630;2023-03-03T06:36:01;10.05;;;6.43;;
16228;SDS011;8222;51.462;12.630;2023-03-03T06:38:27;8.93;;;5.97;;
16228;SDS011;8222;51.462;12.630;2023-03-03T06:40:54;7.20;;;5.10;;
16228;SDS011;8222;51.462;12.630;2023-03-03T06:43:20;9.30;;;5.63;;
16228;SDS011;8222;51.462;12.630;2023-03-03T06:45:45;7.57;;;5.23;;
16228;SDS011;8222;51.462;12.630;2023-03-03T06:48:13;10.25;;;6.80;;
16228;SDS011;8222;51.462;12.630;2023-03-03T06:50:39;6.17;;;4.53;;
16228;SDS011;8222;51.462;12.630;2023-03-03T06:53:12;7.77;;;5.43;;
16228;SDS011;8222;51.462;12.630;2023-03-03T06:55:39;8.27;;;5.50;;
16228;SDS011;8222;51.462;12.630;2023-03-03T06:58:16;5.30;;;4.30;;
16228;SDS011;8222;51.462;12.630;2023-03-03T07:01:04;6.53;;;5.20;;
16228;SDS011;8222;51.462;12.630;2023-03-03T07:03:37;7.07;;;5.53;;
16228;SDS011;8222;51.462;12.630;2023-03-03T07:06:05;4.70;;;3.73;;
16228;SDS011;8222;51.462;12.630;2023-03-03T07:08:54;5.83;;;3.83;;
16228;SDS011;8222;51.462;12.630;2023-03-03T07:11:21;6.37;;;5.63;;
16228;SDS011;8222;51.462;12.630;2023-03-03T07:13:50;8.67;;;4.47;;
16228;SDS011;8222;51.462;12.630;2023-03-03T07:16:18;8.67;;;4.93;;
16228;SDS011;8222;51.462;12.630;2023-03-03T07:18:52;8.63;;;5.72;;
16228;SDS011;8222;51.462;12.630;2023-03-03T07:23:58;6.93;;;5.13;;
16228;SDS011;8222;51.462;12.630;2023-03-03T07:26:30;6.40;;;5.10;;
16228;SDS011;8222;51.462;12.630;2023-03-03T07:29:00;6.77;;;5.47;;
16228;SDS011;8222;51.462;12.630;2023-03-03T07:31:44;6.37;;;4.43;;
16228;SDS011;8222;51.462;12.630;2023-03-03T07:36:45;7.50;;;5.93;;
16228;SDS011;8222;51.462;12.630;2023-03-03T07:42:14;7.73;;;5.67;;
16228;SDS011;8222;51.462;12.630;2023-03-03T07:44:46;9.85;;;7.28;;
16228;SDS011;8222;51.462;12.630;2023-03-03T07:49:47;8.17;;;6.30;;
16228;SDS011;8222;51.462;12.630;2023-03-03T07:54:42;7.27;;;5.87;;
16228;SDS011;8222;51.462;12.630;2023-03-03T07:59:36;8.43;;;6.73;;
16228;SDS011;8222;51.462;12.630;2023-03-03T08:02:44;11.70;;;5.93;;
16228;SDS011;8222;51.462;12.630;2023-03-03T08:10:55;7.47;;;5.93;;
16228;SDS011;8222;51.462;12.630;2023-03-03T08:13:24;9.07;;;5.73;;
16228;SDS011;8222;51.462;12.630;2023-03-03T08:15:59;8.05;;;5.88;;
16228;SDS011;8222;51.462;12.630;2023-03-03T08:18:54;7.67;;;6.23;;
16228;SDS011;8222;51.462;12.630;2023-03-03T08:21:26;6.97;;;5.80;;
16228;SDS011;8222;51.462;12.630;2023-03-03T08:23:55;9.65;;;7.43;;
16228;SDS011;8222;51.462;12.630;2023-03-03T08:26:22;11.00;;;9.20;;
16228;SDS011;8222;51.462;12.630;2023-03-03T08:28:49;9.90;;;7.40;;
16228;SDS011;8222;51.462;12.630;2023-03-03T08:31:15;9.10;;;7.03;;
16228;SDS011;8222;51.462;12.630;2023-03-03T08:33:42;9.15;;;7.25;;
16228;SDS011;8222;51.462;12.630;2023-03-03T08:36:08;8.53;;;7.23;;
16228;SDS011;8222;51.462;12.630;2023-03-03T08:38:34;6.60;;;5.60;;
16228;SDS011;8222;51.462;12.630;2023-03-03T08:41:01;9.43;;;6.33;;
16228;SDS011;8222;51.462;12.630;2023-03-03T08:43:27;11.65;;;8.20;;
16228;SDS011;8222;51.462;12.630;2023-03-03T08:45:56;11.43;;;9.53;;
16228;SDS011;8222;51.462;12.630;2023-03-03T08:48:24;9.17;;;6.87;;
16228;SDS011;8222;51.462;12.630;2023-03-03T08:50:50;12.90;;;9.75;;
16228;SDS011;8222;51.462;12.630;2023-03-03T08:53:16;14.55;;;11.85;;
16228;SDS011;8222;51.462;12.630;2023-03-03T08:55:43;14.20;;;9.95;;
16228;SDS011;8222;51.462;12.630;2023-03-03T08:58:10;11.03;;;8.20;;
16228;SDS011;8222;51.462;12.630;2023-03-03T09:00:36;12.05;;;9.88;;
16228;SDS011;8222;51.462;12.630;2023-03-03T09:03:04;12.83;;;10.90;;
16228;SDS011;8222;51.462;12.630;2023-03-03T09:05:31;11.63;;;7.27;;
16228;SDS011;8222;51.462;12.630;2023-03-03T09:07:58;31.70;;;24.02;;
16228;SDS011;8222;51.462;12.630;2023-03-03T09:10:25;12.48;;;9.07;;
16228;SDS011;8222;51.462;12.630;2023-03-03T09:12:53;12.70;;;9.63;;
16228;SDS011;8222;51.462;12.630;2023-03-03T09:15:32;9.47;;;7.37;;
16228;SDS011;8222;51.462;12.630;2023-03-03T09:20:40;12.73;;;9.43;;
16228;SDS011;8222;51.462;12.630;2023-03-03T09:23:31;12.45;;;9.63;;
16228;SDS011;8222;51.462;12.630;2023-03-03T09:28:46;20.02;;;15.32;;
16228;SDS011;8222;51.462;12.630;2023-03-03T09:31:29;14.63;;;10.93;;
16228;SDS011;8222;51.462;12.630;2023-03-03T09:34:09;12.52;;;10.13;;
16228;SDS011;8222;51.462;12.630;2023-03-03T09:36:48;13.70;;;10.32;;
16228;SDS011;8222;51.462;12.630;2023-03-03T09:39:25;11.77;;;7.10;;
16228;SDS011;8222;51.462;12.630;2023-03-03T09:42:15;11.43;;;7.40;;
16228;SDS011;8222;51.462;12.630;2023-03-03T10:18:19;13.18;;;7.95;;
16228;SDS011;8222;51.462;12.630;2023-03-03T10:21:07;11.20;;;8.60;;
16228;SDS011;8222;51.462;12.630;2023-03-03T10:26:07;12.10;;;7.65;;
16228;SDS011;8222;51.462;12.630;2023-03-03T10:34:17;12.17;;;10.00;;
16228;SDS011;8222;51.462;12.630;2023-03-03T10:37:23;14.05;;;8.25;;
16228;SDS011;8222;51.462;12.630;2023-03-03T10:46:24;12.00;;;8.70;;
16228;SDS011;8222;51.462;12.630;2023-03-03T10:55:00;12.73;;;8.50;;
16228;SDS011;8222;51.462;12.630;2023-03-03T11:00:32;10.65;;;8.57;;
16228;SDS011;8222;51.462;12.630;2023-03-03T11:05:53;9.05;;;6.35;;
16228;SDS011;8222;51.462;12.630;2023-03-03T11:17:29;7.20;;;5.67;;
16228;SDS011;8222;51.462;12.630;2023-03-03T11:33:31;18.05;;;10.68;;
16228;SDS011;8222;51.462;12.630;2023-03-03T11:36:15;14.70;;;9.07;;
16228;SDS011;8222;51.462;12.630;2023-03-03T11:38:57;16.45;;;9.90;;
16228;SDS011;8222;51.462;12.630;2023-03-03T11:41:33;12.00;;;9.03;;
16228;SDS011;8222;51.462;12.630;2023-03-03T11:44:05;18.63;;;9.70;;
16228;SDS011;8222;51.462;12.630;2023-03-03T11:46:49;16.17;;;10.20;;
16228;SDS011;8222;51.462;12.630;2023-03-03T11:51:52;16.23;;;9.90;;
16228;SDS011;8222;51.462;12.630;2023-03-03T12:00:02;16.40;;;9.23;;
16228;SDS011;8222;51.462;12.630;2023-03-03T12:08:02;16.43;;;9.80;;
16228;SDS011;8222;51.462;12.630;2023-03-03T12:24:17;13.30;;;8.25;;
16228;SDS011;8222;51.462;12.630;2023-03-03T12:29:34;14.45;;;9.73;;
16228;SDS011;8222;51.462;12.630;2023-03-03T12:32:32;11.40;;;8.23;;
16228;SDS011;8222;51.462;12.630;2023-03-03T12:35:25;14.18;;;9.90;;
16228;SDS011;8222;51.462;12.630;2023-03-03T12:38:04;14.63;;;9.33;;
16228;SDS011;8222;51.462;12.630;2023-03-03T12:48:49;14.85;;;11.18;;
16228;SDS011;8222;51.462;12.630;2023-03-03T12:54:17;17.10;;;12.27;;
16228;SDS011;8222;51.462;12.630;2023-03-03T12:56:47;17.90;;;12.88;;
16228;SDS011;8222;51.462;12.630;2023-03-03T13:02:29;19.67;;;12.07;;
16228;SDS011;8222;51.462;12.630;2023-03-03T13:08:11;17.43;;;10.80;;
16228;SDS011;8222;51.462;12.630;2023-03-03T13:10:49;17.38;;;12.30;;
16228;SDS011;8222;51.462;12.630;2023-03-03T13:16:27;16.30;;;11.18;;
16228;SDS011;8222;51.462;12.630;2023-03-03T13:19:03;14.25;;;9.88;;
16228;SDS011;8222;51.462;12.630;2023-03-03T13:21:49;14.70;;;9.70;;
16228;SDS011;8222;51.462;12.630;2023-03-03T13:24:34;13.27;;;8.73;;
16228;SDS011;8222;51.462;12.630;2023-03-03T13:27:24;16.10;;;11.35;;
16228;SDS011;8222;51.462;12.630;2023-03-03T13:32:38;15.85;;;11.40;;
16228;SDS011;8222;51.462;12.630;2023-03-03T13:35:15;15.63;;;10.97;;
16228;SDS011;8222;51.462;12.630;2023-03-03T13:37:46;14.53;;;10.97;;
16228;SDS011;8222;51.462;12.630;2023-03-03T13:40:27;17.40;;;10.93;;
16228;SDS011;8222;51.462;12.630;2023-03-03T13:43:09;15.70;;;10.47;;
16228;SDS011;8222;51.462;12.630;2023-03-03T13:45:55;13.57;;;9.03;;
16228;SDS011;8222;51.462;12.630;2023-03-03T14:05:25;19.67;;;13.33;;
16228;SDS011;8222;51.462;12.630;2023-03-03T14:16:51;15.38;;;10.57;;
16228;SDS011;8222;51.462;12.630;2023-03-03T14:19:50;17.67;;;10.90;;
16228;SDS011;8222;51.462;12.630;2023-03-03T14:22:27;12.93;;;8.83;;
16228;SDS011;8222;51.462;12.630;2023-03-03T14:25:06;14.00;;;8.80;;
16228;SDS011;8222;51.462;12.630;2023-03-03T14:38:21;14.33;;;9.87;;
16228;SDS011;8222;51.462;12.630;2023-03-03T14:40:49;19.08;;;12.20;;
16228;SDS011;8222;51.462;12.630;2023-03-03T14:43:37;17.17;;;11.75;;
16228;SDS011;8222;51.462;12.630;2023-03-03T14:48:56;14.27;;;9.70;;
16228;SDS011;8222;51.462;12.630;2023-03-03T14:53:52;14.55;;;11.23;;
16228;SDS011;8222;51.462;12.630;2023-03-03T14:58:46;13.73;;;9.57;;
16228;SDS011;8222;51.462;12.630;2023-03-03T15:01:30;12.73;;;8.80;;
16228;SDS011;8222;51.462;12.630;2023-03-03T15:04:00;13.77;;;9.63;;
16228;SDS011;8222;51.462;12.630;2023-03-03T15:17:43;14.43;;;10.23;;
16228;SDS011;8222;51.462;12.630;2023-03-03T15:26:03;11.07;;;8.40;;
16228;SDS011;8222;51.462;12.630;2023-03-03T15:41:46;13.80;;;8.60;;
16228;SDS011;8222;51.462;12.630;2023-03-03T15:50:00;17.33;;;10.73;;
16228;SDS011;8222;51.462;12.630;2023-03-03T16:04:04;11.33;;;8.37;;
16228;SDS011;8222;51.462;12.630;2023-03-03T16:23:46;14.90;;;8.70;;
16228;SDS011;8222;51.462;12.630;2023-03-03T16:31:39;11.97;;;7.53;;
16228;SDS011;8222;51.462;12.630;2023-03-03T16:37:26;12.10;;;8.93;;
16228;SDS011;8222;51.462;12.630;2023-03-03T16:40:23;12.13;;;8.20;;
16228;SDS011;8222;51.462;12.630;2023-03-03T16:42:58;11.37;;;6.73;;
16228;SDS011;8222;51.462;12.630;2023-03-03T16:45:43;12.83;;;7.83;;
16228;SDS011;8222;51.462;12.630;2023-03-03T16:48:25;13.93;;;9.37;;
16228;SDS011;8222;51.462;12.630;2023-03-03T16:51:22;12.93;;;8.85;;
16228;SDS011;8222;51.462;12.630;2023-03-03T16:54:10;11.93;;;8.25;;
16228;SDS011;8222;51.462;12.630;2023-03-03T16:56:47;12.85;;;9.40;;
16228;SDS011;8222;51.462;12.630;2023-03-03T17:05:05;10.47;;;7.07;;
16228;SDS011;8222;51.462;12.630;2023-03-03T17:07:40;9.03;;;6.53;;
16228;SDS011;8222;51.462;12.630;2023-03-03T17:20:57;13.20;;;8.90;;
16228;SDS011;8222;51.462;12.630;2023-03-03T17:23:34;19.83;;;12.80;;
16228;SDS011;8222;51.462;12.630;2023-03-03T17:29:44;15.30;;;10.63;;
16228;SDS011;8222;51.462;12.630;2023-03-03T17:35:19;12.80;;;8.97;;
16228;SDS011;8222;51.462;12.630;2023-03-03T17:40:45;19.48;;;14.43;;
16228;SDS011;8222;51.462;12.630;2023-03-03T17:43:27;15.03;;;13.57;;
16228;SDS011;8222;51.462;12.630;2023-03-03T17:45:58;16.47;;;14.13;;
16228;SDS011;8222;51.462;12.630;2023-03-03T17:51:03;12.73;;;11.33;;
16228;SDS011;8222;51.462;12.630;2023-03-03T17:56:22;11.43;;;7.95;;
16228;SDS011;8222;51.462;12.630;2023-03-03T18:07:36;9.13;;;6.80;;
16228;SDS011;8222;51.462;12.630;2023-03-03T18:16:11;9.17;;;6.70;;
16228;SDS011;8222;51.462;12.630;2023-03-03T18:21:36;11.47;;;6.73;;
16228;SDS011;8222;51.462;12.630;2023-03-03T18:24:26;12.07;;;7.30;;
16228;SDS011;8222;51.462;12.630;2023-03-03T18:27:11;7.43;;;6.07;;
16228;SDS011;8222;51.462;12.630;2023-03-03T18:30:12;9.23;;;6.47;;
16228;SDS011;8222;51.462;12.630;2023-03-03T18:35:41;8.90;;;7.65;;
16228;SDS011;8222;51.462;12.630;2023-03-03T18:40:58;14.60;;;9.88;;
16228;SDS011;8222;51.462;12.630;2023-03-03T18:46:04;14.85;;;9.80;;
16228;SDS011;8222;51.462;12.630;2023-03-03T18:48:54;11.57;;;7.17;;
16228;SDS011;8222;51.462;12.630;2023-03-03T18:54:26;12.07;;;7.77;;
16228;SDS011;8222;51.462;12.630;2023-03-03T19:04:54;9.60;;;7.40;;
16228;SDS011;8222;51.462;12.630;2023-03-03T19:10:05;10.93;;;7.70;;
16228;SDS011;8222;51.462;12.630;2023-03-03T19:12:51;10.23;;;7.87;;
16228;SDS011;8222;51.462;12.630;2023-03-03T19:21:26;9.73;;;7.60;;
16228;SDS011;8222;51.462;12.630;2023-03-03T19:23:58;10.98;;;8.18;;
16228;SDS011;8222;51.462;12.630;2023-03-03T19:34:24;14.43;;;10.15;;
16228;SDS011;8222;51.462;12.630;2023-03-03T19:39:54;12.20;;;8.23;;
16228;SDS011;8222;51.462;12.630;2023-03-03T19:42:35;9.67;;;7.57;;
16228;SDS011;8222;51.462;12.630;2023-03-03T19:50:31;14.27;;;9.63;;
16228;SDS011;8222;51.462;12.630;2023-03-03T20:03:57;16.17;;;12.52;;
16228;SDS011;8222;51.462;12.630;2023-03-03T20:06:45;18.15;;;12.68;;
16228;SDS011;8222;51.462;12.630;2023-03-03T20:09:21;15.23;;;12.03;;
16228;SDS011;8222;51.462;12.630;2023-03-03T20:14:44;18.77;;;12.10;;
16228;SDS011;8222;51.462;12.630;2023-03-03T20:20:04;19.88;;;13.30;;
16228;SDS011;8222;51.462;12.630;2023-03-03T20:22:39;19.75;;;14.10;;
16228;SDS011;8222;51.462;12.630;2023-03-03T20:25:35;17.53;;;11.50;;
16228;SDS011;8222;51.462;12.630;2023-03-03T20:28:23;21.95;;;15.38;;
16228;SDS011;8222;51.462;12.630;2023-03-03T20:31:04;16.73;;;12.03;;
16228;SDS011;8222;51.462;12.630;2023-03-03T20:48:30;13.50;;;9.93;;
16228;SDS011;8222;51.462;12.630;2023-03-03T20:56:15;13.75;;;9.65;;
16228;SDS011;8222;51.462;12.630;2023-03-03T21:01:28;18.98;;;12.35;;
16228;SDS011;8222;51.462;12.630;2023-03-03T21:04:15;16.13;;;7.57;;
16228;SDS011;8222;51.462;12.630;2023-03-03T21:06:49;10.02;;;8.88;;
16228;SDS011;8222;51.462;12.630;2023-03-03T21:09:34;10.23;;;7.80;;
16228;SDS011;8222;51.462;12.630;2023-03-03T21:12:36;12.15;;;8.85;;
16228;SDS011;8222;51.462;12.630;2023-03-03T21:15:21;8.17;;;6.37;;
16228;SDS011;8222;51.462;12.630;2023-03-03T21:17:47;9.35;;;6.70;;
16228;SDS011;8222;51.462;12.630;2023-03-03T21:22:54;8.27;;;6.47;;
16228;SDS011;8222;51.462;12.630;2023-03-03T21:28:23;6.77;;;5.77;;
16228;SDS011;8222;51.462;12.630;2023-03-03T21:36:04;7.60;;;6.75;;
16228;SDS011;8222;51.462;12.630;2023-03-03T21:38:34;7.87;;;6.17;;
16228;SDS011;8222;51.462;12.630;2023-03-03T21:41:01;10.00;;;6.88;;
16228;SDS011;8222;51.462;12.630;2023-03-03T21:43:31;9.02;;;7.82;;
16228;SDS011;8222;51.462;12.630;2023-03-03T21:46:00;9.50;;;6.67;;
16228;SDS011;8222;51.462;12.630;2023-03-03T21:48:26;11.20;;;7.80;;
16228;SDS011;8222;51.462;12.630;2023-03-03T21:50:53;26.55;;;12.45;;
16228;SDS011;8222;51.462;12.630;2023-03-03T21:53:19;14.32;;;11.52;;
16228;SDS011;8222;51.462;12.630;2023-03-03T21:55:46;17.35;;;11.77;;
16228;SDS011;8222;51.462;12.630;2023-03-03T21:58:15;14.23;;;9.93;;
16228;SDS011;8222;51.462;12.630;2023-03-03T22:00:43;13.97;;;10.17;;
16228;SDS011;8222;51.462;12.630;2023-03-03T22:03:09;16.48;;;11.80;;
16228;SDS011;8222;51.462;12.630;2023-03-03T22:05:35;18.67;;;14.05;;
16228;SDS011;8222;51.462;12.630;2023-03-03T22:08:03;16.73;;;10.90;;
16228;SDS011;8222;51.462;12.630;2023-03-03T22:10:29;18.50;;;11.93;;
16228;SDS011;8222;51.462;12.630;2023-03-03T22:12:54;14.57;;;10.60;;
16228;SDS011;8222;51.462;12.630;2023-03-03T22:15:20;15.03;;;11.03;;
16228;SDS011;8222;51.462;12.630;2023-03-03T22:17:47;18.85;;;13.57;;
16228;SDS011;8222;51.462;12.630;2023-03-03T22:20:13;19.50;;;12.50;;
16228;SDS011;8222;51.462;12.630;2023-03-03T22:22:39;17.10;;;12.10;;
16228;SDS011;8222;51.462;12.630;2023-03-03T22:25:06;22.23;;;14.55;;
16228;SDS011;8222;51.462;12.630;2023-03-03T22:27:34;17.57;;;13.57;;